Scottville, North Carolina
Current Conditions -  °F | °C
As of 5:15 PM on Tuesday 21 Oct 2014 (Local Time) from KGEV Reporting Station
Overcast Overcast  
Wind Chill: 52°   Ceiling: 5000
Heat Index: 52°   Visibility: 10mi
Dew Point: 34°   Wind: 17mph
Humidity: 50%   Direction: 300°WNW
Pressure: 29.95"   Gusts: 26mph
Location:  36.48°N, 81.31°W
Report Text: KGEV 212115Z AUTO 30015G23KT 10SM SCT044 OVC050 11/01 A2995 RMK AO2 T01100009
Loading
Personal Weather Stations






























Interactive Weather Map
Tropical Storm Tracking
New forecast layout! Learn more

10-Day Weather Forecast

Advertisements
Track Severe Weather on mobile